aviador You're here:

LFMN Decoded Metar

NICE in FRANCE
Report Time2017-08-21 13:30:00
UTC Time2017-08-21 13:50:17
Flight Rules vfr VFR
Wind160° at 07 kt
W.Decomp.*RWY 22: 3.4 kt HW 6.1 kt LCW
W.Rank160° ranks 16
Current wind is above 160° avg. (5.2)
Visibility9999 m
Phenomena:N/A
Clouds:Few 033 Hf
Expected CloudBase > 4,400 ft AGL from Temp-Dew spread
CeilingNone
Temp27°C (ISA +12)
Dew Point16°C (51% RH)
Heat Index27.5°C
AAT26.5°C
QNH1018 hPa
Density Alt1,499 ft
Elevation33 ft
Report Wrong Elevation
Raw Report
LFMN 211330Z 16007KT 9999 FEW033 27/16 Q1018 NOSIG=

Extra information for LFMN:More info

Metar Taf Metar & Taf Last 4 Metars F.Rules Stats Wind Profile Meteogram Temp Stats Airport Information Weather charts Add Link Nearby VenuesMetar ALERT Operation Metar Decoded Social comments